createdAt,value
2023-01-13T00:00:38.264Z,3.97
2023-01-13T00:03:06.729Z,1.38
2023-01-13T00:05:35.605Z,3.63
2023-01-13T00:08:04.899Z,3.13
2023-01-13T00:10:35.210Z,1.75
2023-01-13T00:13:05.880Z,2.55
2023-01-13T00:15:34.621Z,5.38
2023-01-13T00:18:03.186Z,2.38
2023-01-13T00:20:31.395Z,3.92
2023-01-13T00:23:00.135Z,6.97
2023-01-13T00:25:28.441Z,2.90
2023-01-13T00:27:58.021Z,16.58
2023-01-13T00:30:26.305Z,0.85
2023-01-13T00:32:55.302Z,1.27
2023-01-13T00:35:23.794Z,1.60
2023-01-13T00:37:52.127Z,1.15
2023-01-13T00:40:20.535Z,1.08
2023-01-13T00:43:06.245Z,1.17
2023-01-13T00:45:35.870Z,2.03
2023-01-13T00:48:04.702Z,0.77
2023-01-13T00:50:33.470Z,0.40
2023-01-13T00:53:02.092Z,3.75
2023-01-13T00:55:32.849Z,1.50
2023-01-13T00:58:03.566Z,5.90
2023-01-13T01:00:32.336Z,1.60
2023-01-13T01:03:02.014Z,6.43
2023-01-13T01:05:30.251Z,0.35
2023-01-13T01:07:58.756Z,1.33
2023-01-13T01:10:27.141Z,2.45
2023-01-13T01:12:55.693Z,1.58
2023-01-13T01:15:24.265Z,0.80
2023-01-13T01:17:52.772Z,3.92
2023-01-13T01:20:22.544Z,2.75
2023-01-13T01:22:50.827Z,1.98
2023-01-13T01:25:19.386Z,5.13
2023-01-13T01:27:47.648Z,3.33
2023-01-13T01:30:16.752Z,3.65
2023-01-13T01:32:44.980Z,2.88
2023-01-13T01:35:13.210Z,0.80
2023-01-13T01:37:42.784Z,0.70
2023-01-13T01:40:12.902Z,1.52
2023-01-13T01:42:58.979Z,5.85
2023-01-13T01:45:30.511Z,1.08
2023-01-13T01:48:02.221Z,4.15
2023-01-13T01:50:32.326Z,5.93
2023-01-13T01:53:08.225Z,0.95
2023-01-13T01:55:37.982Z,0.65
2023-01-13T01:58:12.591Z,1.27
2023-01-13T02:00:41.171Z,1.65
2023-01-13T02:03:11.979Z,3.95
2023-01-13T02:05:41.188Z,9.63
2023-01-13T02:08:14.099Z,1.92
2023-01-13T02:10:46.420Z,4.53
2023-01-13T02:13:14.516Z,3.78
2023-01-13T02:15:52.973Z,1.30
2023-01-13T02:18:39.256Z,1.67
2023-01-13T02:22:01.614Z,3.10
2023-01-13T02:25:04.863Z,2.08
2023-01-13T02:28:07.708Z,2.35
2023-01-13T02:31:03.295Z,2.83
2023-01-13T02:34:02.714Z,4.03
2023-01-13T02:36:40.327Z,1.85
2023-01-13T02:39:17.530Z,2.05
2023-01-13T02:42:18.064Z,0.98
2023-01-13T02:45:09.108Z,0.93
2023-01-13T02:47:43.979Z,5.85
2023-01-13T02:52:46.252Z,1.85
2023-01-13T02:55:23.037Z,7.75
2023-01-13T02:57:53.664Z,1.33
2023-01-13T03:00:23.996Z,1.30
2023-01-13T03:02:53.997Z,1.02
2023-01-13T03:05:22.620Z,0.57
2023-01-13T03:08:15.627Z,2.92
2023-01-13T03:11:05.703Z,2.47
2023-01-13T03:14:02.986Z,0.70
2023-01-13T03:16:39.384Z,1.10
2023-01-13T03:19:23.691Z,1.27
2023-01-13T03:21:58.315Z,8.80
2023-01-13T03:24:35.339Z,3.75
2023-01-13T03:27:09.290Z,0.35
2023-01-13T03:29:42.136Z,0.40
2023-01-13T03:32:16.001Z,1.27
2023-01-13T03:34:51.087Z,1.10
2023-01-13T03:37:26.250Z,1.17
2023-01-13T03:40:01.426Z,2.08
2023-01-13T03:42:34.999Z,0.82
2023-01-13T03:45:10.520Z,3.97
2023-01-13T03:47:48.375Z,1.92
2023-01-13T03:50:23.642Z,0.85
2023-01-13T03:52:56.757Z,3.13
2023-01-13T03:55:31.288Z,0.70
2023-01-13T03:58:06.732Z,1.42
2023-01-13T04:00:43.332Z,0.20
2023-01-13T04:03:15.505Z,0.25
2023-01-13T04:05:51.119Z,0.30
2023-01-13T04:08:23.512Z,0.40
2023-01-13T04:10:59.233Z,2.88
2023-01-13T04:13:32.258Z,0.20
2023-01-13T04:16:01.615Z,1.50
2023-01-13T04:18:31.840Z,1.25
2023-01-13T04:21:02.824Z,0.40
2023-01-13T04:23:31.124Z,0.45
2023-01-13T04:25:59.609Z,0.30
2023-01-13T04:28:28.069Z,2.08
2023-01-13T04:30:56.584Z,2.00
2023-01-13T04:33:25.130Z,0.40
2023-01-13T04:35:53.683Z,0.25
2023-01-13T04:38:23.798Z,4.57
2023-01-13T04:40:52.023Z,0.20
2023-01-13T04:43:20.544Z,1.02
2023-01-13T04:45:49.042Z,1.35
2023-01-13T04:48:17.564Z,0.55
2023-01-13T04:50:45.801Z,3.40
2023-01-13T04:53:14.094Z,1.20
2023-01-13T04:55:44.392Z,0.15
2023-01-13T04:58:12.881Z,1.13
2023-01-13T05:00:41.449Z,1.55
2023-01-13T05:03:09.712Z,0.40
2023-01-13T05:05:38.940Z,0.47
2023-01-13T05:08:08.951Z,0.28
2023-01-13T05:10:37.787Z,4.43
2023-01-13T05:13:24.904Z,1.38
2023-01-13T05:16:18.840Z,0.20
2023-01-13T05:18:47.140Z,0.75
2023-01-13T05:21:29.259Z,0.10
2023-01-13T05:24:15.209Z,0.30
2023-01-13T05:26:43.455Z,6.97
2023-01-13T05:29:13.008Z,1.77
2023-01-13T05:31:41.580Z,1.85
2023-01-13T05:34:09.760Z,0.30
2023-01-13T05:36:38.047Z,1.40
2023-01-13T05:39:06.310Z,0.28
2023-01-13T05:41:52.186Z,0.93
2023-01-13T05:44:21.814Z,0.30
2023-01-13T05:46:50.088Z,0.32
2023-01-13T05:49:18.495Z,0.20
2023-01-13T05:51:46.976Z,3.00
2023-01-13T05:54:15.427Z,0.80
2023-01-13T05:56:43.655Z,1.42
2023-01-13T05:59:12.137Z,0.45
2023-01-13T06:01:41.664Z,2.10
2023-01-13T06:04:10.052Z,2.83
2023-01-13T06:06:38.640Z,1.05
2023-01-13T06:09:06.899Z,3.75
2023-01-13T06:11:35.111Z,0.45
2023-01-13T06:14:03.334Z,0.65
2023-01-13T06:16:31.579Z,2.10
2023-01-13T06:19:01.234Z,2.33
2023-01-13T06:21:30.534Z,1.23
2023-01-13T06:24:00.765Z,2.40
2023-01-13T06:26:31.367Z,0.55
2023-01-13T06:28:59.933Z,2.03
2023-01-13T06:31:28.596Z,0.68
2023-01-13T06:34:03.536Z,0.47
2023-01-13T06:36:38.367Z,1.25
2023-01-13T06:39:07.284Z,0.50
2023-01-13T06:41:53.179Z,0.30
2023-01-13T06:44:24.513Z,1.55
2023-01-13T06:46:53.488Z,1.15
2023-01-13T06:49:23.230Z,0.98
2023-01-13T06:51:51.681Z,2.67
2023-01-13T06:54:19.893Z,0.35
2023-01-13T06:56:48.248Z,5.78
2023-01-13T06:59:17.420Z,0.93
2023-01-13T07:01:45.951Z,0.38
2023-01-13T07:04:14.656Z,0.15
2023-01-13T07:06:44.359Z,1.35
2023-01-13T07:09:12.796Z,0.28
2023-01-13T07:11:41.327Z,0.30
2023-01-13T07:14:27.446Z,0.35
2023-01-13T07:16:55.717Z,1.05
2023-01-13T07:19:24.249Z,0.45
2023-01-13T07:21:53.964Z,0.60
2023-01-13T07:24:23.466Z,0.40
2023-01-13T07:26:52.564Z,0.73
2023-01-13T07:29:20.901Z,1.38
2023-01-13T07:31:50.290Z,1.58
2023-01-13T07:34:18.718Z,0.40
2023-01-13T07:36:47.270Z,3.63
2023-01-13T07:39:16.847Z,0.40
2023-01-13T07:42:03.002Z,3.92
2023-01-13T07:44:31.366Z,0.45
2023-01-13T07:46:59.713Z,0.20
2023-01-13T07:49:28.003Z,1.02
2023-01-13T07:51:56.234Z,2.70
2023-01-13T07:54:39.619Z,0.85
2023-01-13T07:57:10.206Z,3.13
2023-01-13T07:59:38.691Z,2.40
2023-01-13T08:02:07.511Z,1.63
2023-01-13T08:04:35.819Z,0.20
2023-01-13T08:07:04.958Z,0.95
2023-01-13T08:09:34.528Z,0.50
2023-01-13T08:12:20.319Z,5.13
2023-01-13T08:14:50.139Z,1.30
2023-01-13T08:17:20.458Z,8.10
2023-01-13T08:19:49.019Z,5.32
2023-01-13T08:22:17.651Z,6.55
2023-01-13T08:24:47.239Z,0.47
2023-01-13T08:27:15.503Z,1.42
2023-01-13T08:29:44.106Z,3.60
2023-01-13T08:32:12.625Z,4.78
2023-01-13T08:34:40.875Z,1.15
2023-01-13T08:37:09.177Z,3.45
2023-01-13T08:39:37.769Z,3.22
2023-01-13T08:42:07.520Z,7.28
2023-01-13T08:44:35.816Z,7.32
2023-01-13T08:47:05.757Z,4.68
2023-01-13T08:49:34.032Z,2.00
2023-01-13T08:52:02.216Z,1.20
2023-01-13T08:54:30.460Z,5.25
2023-01-13T08:56:59.617Z,0.95
2023-01-13T08:59:30.338Z,6.93
2023-01-13T09:01:58.805Z,4.55
2023-01-13T09:04:29.708Z,1.65
2023-01-13T09:06:58.988Z,5.93
2023-01-13T09:09:28.369Z,4.28
2023-01-13T09:12:14.133Z,2.13
2023-01-13T09:14:43.821Z,0.50
2023-01-13T09:17:12.331Z,6.00
2023-01-13T09:19:40.599Z,11.07
2023-01-13T09:22:10.879Z,1.48
2023-01-13T09:24:39.114Z,2.03
2023-01-13T09:27:07.314Z,2.63
2023-01-13T09:29:35.534Z,4.38
2023-01-13T09:32:05.946Z,1.88
2023-01-13T09:34:52.072Z,3.38
2023-01-13T09:37:20.387Z,2.05
2023-01-13T09:39:48.906Z,3.08
2023-01-13T09:42:44.793Z,0.95
2023-01-13T09:45:17.470Z,3.78
2023-01-13T09:47:56.620Z,1.45
2023-01-13T09:50:40.903Z,3.55
2023-01-13T09:53:16.108Z,1.57
2023-01-13T09:55:45.542Z,2.22
2023-01-13T09:58:17.282Z,6.13
2023-01-13T10:00:57.946Z,4.30
2023-01-13T10:03:30.507Z,4.75
2023-01-13T10:06:06.821Z,2.20
2023-01-13T10:08:38.798Z,6.07
2023-01-13T10:11:28.328Z,11.15
2023-01-13T10:14:01.238Z,5.43
2023-01-13T10:16:42.228Z,5.70
2023-01-13T10:19:19.886Z,3.75
2023-01-13T10:22:32.034Z,6.18
2023-01-13T10:25:23.221Z,6.50
2023-01-13T10:27:54.679Z,2.90
2023-01-13T10:30:30.998Z,5.70
2023-01-13T10:33:01.899Z,1.40
2023-01-13T10:35:53.495Z,4.38
2023-01-13T10:38:25.377Z,9.55
2023-01-13T10:40:57.253Z,9.15
2023-01-13T10:43:26.888Z,7.68
2023-01-13T10:46:05.551Z,9.55
2023-01-13T10:48:38.395Z,6.68
2023-01-13T10:51:24.268Z,5.82
2023-01-13T10:54:00.150Z,8.13
2023-01-13T10:56:32.324Z,8.13
2023-01-13T10:59:23.233Z,2.65
2023-01-13T11:02:07.888Z,7.25
2023-01-13T11:04:44.963Z,7.93
2023-01-13T11:07:29.283Z,3.78
2023-01-13T11:10:20.312Z,9.15
2023-01-13T11:12:58.686Z,10.93
2023-01-13T11:15:41.012Z,4.40
2023-01-13T11:18:20.595Z,2.72
2023-01-13T11:20:52.591Z,8.77
2023-01-13T11:23:27.805Z,11.25
2023-01-13T11:26:05.182Z,7.65
2023-01-13T11:28:45.534Z,5.95
2023-01-13T11:31:24.543Z,7.57
2023-01-13T11:34:00.328Z,7.60
2023-01-13T11:36:35.412Z,7.00
2023-01-13T11:39:18.530Z,5.65
2023-01-13T11:42:13.730Z,10.60
2023-01-13T11:44:50.647Z,6.72
2023-01-13T11:47:24.633Z,6.30
2023-01-13T11:49:53.118Z,10.97
2023-01-13T11:52:29.042Z,6.93
2023-01-13T11:55:25.170Z,9.80
2023-01-13T11:58:21.259Z,5.07
2023-01-13T12:01:05.267Z,6.95
2023-01-13T12:03:40.292Z,6.43
2023-01-13T12:06:30.714Z,5.35
2023-01-13T12:09:16.111Z,6.22
2023-01-13T12:12:20.233Z,6.53
2023-01-13T12:15:24.199Z,3.72
2023-01-13T12:18:09.747Z,8.57
2023-01-13T12:20:50.595Z,5.65
2023-01-13T12:23:31.709Z,2.13
2023-01-13T12:26:06.284Z,5.20
2023-01-13T12:28:46.340Z,4.63
2023-01-13T12:31:18.691Z,12.77
2023-01-13T12:34:02.563Z,8.30
2023-01-13T12:36:42.803Z,9.30
2023-01-13T12:39:24.916Z,11.43
2023-01-13T12:42:16.379Z,2.00
2023-01-13T12:45:21.821Z,9.13
2023-01-13T12:47:50.566Z,12.00
2023-01-13T12:51:00.542Z,11.38
2023-01-13T12:53:38.780Z,3.30
2023-01-13T12:56:40.683Z,6.63
2023-01-13T12:59:48.954Z,9.07
2023-01-13T13:02:37.636Z,9.30
2023-01-13T13:05:41.858Z,6.78
2023-01-13T13:08:26.798Z,5.28
2023-01-13T13:11:39.117Z,5.72
2023-01-13T13:14:10.571Z,3.83
2023-01-13T13:16:51.989Z,5.85
2023-01-13T13:19:50.674Z,6.32
2023-01-13T13:22:38.418Z,5.30
2023-01-13T13:25:27.243Z,10.98
2023-01-13T13:28:19.234Z,3.67
2023-01-13T13:31:06.559Z,8.55
2023-01-13T13:34:02.953Z,8.30
2023-01-13T13:36:54.143Z,5.93
2023-01-13T13:39:44.067Z,4.00
2023-01-13T13:42:34.403Z,8.25
2023-01-13T13:45:21.862Z,8.73
2023-01-13T13:47:51.498Z,6.97
2023-01-13T13:50:22.152Z,9.38
2023-01-13T13:52:58.930Z,10.15
2023-01-13T13:55:29.719Z,9.75
2023-01-13T13:58:01.516Z,5.68
2023-01-13T14:00:32.880Z,6.72
2023-01-13T14:03:03.974Z,4.50
2023-01-13T14:05:34.264Z,7.60
2023-01-13T14:08:14.221Z,4.45
2023-01-13T14:10:45.564Z,5.70
2023-01-13T14:13:22.971Z,7.28
2023-01-13T14:15:57.501Z,3.58
2023-01-13T14:18:27.318Z,4.10
2023-01-13T14:20:59.390Z,6.63
2023-01-13T14:23:31.335Z,7.57
2023-01-13T14:26:07.839Z,7.45
2023-01-13T14:28:42.091Z,5.15
2023-01-13T14:31:11.775Z,10.45
2023-01-13T14:33:43.877Z,6.70
2023-01-13T14:36:18.560Z,18.40
2023-01-13T14:38:50.757Z,3.90
2023-01-13T14:41:26.610Z,3.40
2023-01-13T14:43:59.258Z,6.43
2023-01-13T14:46:38.966Z,11.98
2023-01-13T14:49:17.095Z,3.33
2023-01-13T14:51:45.997Z,5.88
2023-01-13T14:54:47.827Z,3.13
2023-01-13T14:57:27.376Z,9.60
2023-01-13T15:00:08.251Z,4.10
2023-01-13T15:02:46.151Z,3.90
2023-01-13T15:05:47.281Z,11.57
2023-01-13T15:08:37.875Z,12.25
2023-01-13T15:11:19.212Z,20.30
2023-01-13T15:13:54.770Z,7.68
2023-01-13T15:16:25.906Z,7.55
2023-01-13T15:18:55.024Z,8.77
2023-01-13T15:21:24.073Z,6.25
2023-01-13T15:23:52.800Z,13.98
2023-01-13T15:26:26.487Z,9.57
2023-01-13T15:28:56.743Z,14.57
2023-01-13T15:31:26.866Z,5.25
2023-01-13T15:33:55.889Z,6.07
2023-01-13T15:36:28.121Z,12.95
2023-01-13T15:38:57.199Z,12.95
2023-01-13T15:41:44.899Z,7.35
2023-01-13T15:44:32.589Z,8.25
2023-01-13T15:47:06.123Z,16.88
2023-01-13T15:49:38.594Z,15.70
2023-01-13T15:52:21.327Z,15.52
2023-01-13T15:54:49.846Z,9.60
2023-01-13T15:57:24.777Z,13.73
2023-01-13T15:59:57.109Z,12.75
2023-01-13T16:02:25.603Z,8.40
2023-01-13T16:04:54.811Z,11.73
2023-01-13T16:07:26.000Z,9.32
2023-01-13T16:09:54.516Z,17.75
2023-01-13T16:12:24.138Z,11.07
2023-01-13T16:14:52.741Z,12.52
2023-01-13T16:17:24.873Z,7.70
2023-01-13T16:19:53.458Z,8.73
2023-01-13T16:22:21.988Z,7.63
2023-01-13T16:24:50.322Z,2.22
2023-01-13T16:27:21.698Z,6.75
2023-01-13T16:29:52.561Z,6.68
2023-01-13T16:32:21.292Z,8.80
2023-01-13T16:34:50.043Z,10.20
2023-01-13T16:37:22.785Z,9.82
2023-01-13T16:39:52.364Z,10.63
2023-01-13T16:42:20.793Z,8.82
2023-01-13T16:44:49.720Z,8.32
2023-01-13T16:47:20.183Z,5.80
2023-01-13T16:49:48.512Z,2.58
2023-01-13T16:52:16.729Z,14.38
2023-01-13T16:54:45.023Z,15.85
2023-01-13T16:57:15.862Z,6.28
2023-01-13T16:59:44.404Z,17.35
2023-01-13T17:02:15.611Z,4.25
2023-01-13T17:04:45.325Z,14.68
2023-01-13T17:07:17.754Z,4.65
2023-01-13T17:09:46.439Z,10.07
2023-01-13T17:12:14.672Z,8.00
2023-01-13T17:14:44.268Z,6.40
2023-01-13T17:17:23.427Z,8.48
2023-01-13T17:19:54.653Z,9.10
2023-01-13T17:22:24.207Z,5.13
2023-01-13T17:24:52.552Z,8.23
2023-01-13T17:27:21.436Z,4.25
2023-01-13T17:29:49.875Z,9.07
2023-01-13T17:32:18.914Z,6.35
2023-01-13T17:34:47.576Z,5.90
2023-01-13T17:37:18.161Z,12.60
2023-01-13T17:39:48.326Z,6.80
2023-01-13T17:42:16.862Z,12.20
2023-01-13T17:44:45.185Z,8.27
2023-01-13T17:47:13.529Z,11.60
2023-01-13T17:49:41.760Z,8.13
2023-01-13T17:52:10.369Z,6.57
2023-01-13T17:54:42.955Z,7.40
2023-01-13T17:57:11.541Z,4.20
2023-01-13T17:59:41.356Z,7.32
2023-01-13T18:02:13.357Z,7.50
2023-01-13T18:04:42.420Z,4.72
2023-01-13T18:07:10.645Z,7.63
2023-01-13T18:09:40.296Z,18.73
2023-01-13T18:12:08.614Z,5.35
2023-01-13T18:14:36.877Z,13.52
2023-01-13T18:17:05.264Z,11.00
2023-01-13T18:19:53.422Z,8.80
2023-01-13T18:22:39.617Z,10.52
2023-01-13T18:25:30.599Z,4.07
2023-01-13T18:27:59.499Z,5.40
2023-01-13T18:30:27.719Z,5.93
2023-01-13T18:32:56.443Z,10.38
2023-01-13T18:35:24.959Z,4.57
2023-01-13T18:37:53.258Z,16.27
2023-01-13T18:40:23.091Z,10.52
2023-01-13T18:42:54.682Z,13.48
2023-01-13T18:45:26.228Z,8.88
2023-01-13T18:47:56.750Z,9.32
2023-01-13T18:50:25.836Z,10.15
2023-01-13T18:52:54.175Z,9.98
2023-01-13T18:55:23.908Z,8.52
2023-01-13T18:57:53.077Z,4.10
2023-01-13T19:00:24.582Z,6.18
2023-01-13T19:05:36.292Z,5.93
2023-01-13T19:08:05.129Z,10.95
2023-01-13T19:10:34.775Z,15.18
2023-01-13T19:13:03.172Z,11.13
2023-01-13T19:15:31.660Z,6.50
2023-01-13T19:18:00.327Z,3.58
2023-01-13T19:20:28.610Z,7.43
2023-01-13T19:22:56.873Z,7.55
2023-01-13T19:25:25.112Z,8.95
2023-01-13T19:27:54.728Z,5.00
2023-01-13T19:30:22.960Z,11.20
2023-01-13T19:32:51.221Z,8.55
2023-01-13T19:35:20.041Z,6.28
2023-01-13T19:37:48.321Z,7.20
2023-01-13T19:40:17.254Z,3.65
2023-01-13T19:43:03.358Z,11.63
2023-01-13T19:45:35.269Z,4.40
2023-01-13T19:48:05.477Z,5.00
2023-01-13T19:50:38.397Z,12.23
2023-01-13T19:53:07.230Z,7.57
2023-01-13T19:55:35.950Z,11.00
2023-01-13T19:58:04.418Z,16.50
2023-01-13T20:00:34.854Z,4.65
2023-01-13T20:03:07.963Z,8.38
2023-01-13T20:05:36.357Z,7.13
2023-01-13T20:08:04.911Z,8.73
2023-01-13T20:10:33.207Z,6.78
2023-01-13T20:13:02.392Z,5.78
2023-01-13T20:15:31.080Z,11.38
2023-01-13T20:18:00.799Z,6.32
2023-01-13T20:20:29.112Z,6.95
2023-01-13T20:22:58.125Z,6.22
2023-01-13T20:25:28.529Z,7.95
2023-01-13T20:27:58.513Z,11.07
2023-01-13T20:30:27.071Z,5.50
2023-01-13T20:32:55.598Z,11.43
2023-01-13T20:35:29.919Z,8.77
2023-01-13T20:37:58.333Z,14.75
2023-01-13T20:40:26.607Z,7.43
2023-01-13T20:42:54.655Z,11.63
2023-01-13T20:45:23.348Z,7.93
2023-01-13T20:47:51.953Z,12.57
2023-01-13T20:50:20.545Z,9.80
2023-01-13T20:52:52.467Z,8.82
2023-01-13T20:55:20.800Z,11.43
2023-01-13T20:57:50.323Z,9.48
2023-01-13T21:00:20.271Z,11.95
2023-01-13T21:02:48.901Z,6.50
2023-01-13T21:05:17.584Z,9.90
2023-01-13T21:07:45.991Z,9.93
2023-01-13T21:10:15.774Z,11.27
2023-01-13T21:13:01.957Z,9.30
2023-01-13T21:15:30.600Z,10.75
2023-01-13T21:18:16.284Z,7.78
2023-01-13T21:20:44.555Z,14.43
2023-01-13T21:23:12.835Z,5.00
2023-01-13T21:25:43.247Z,5.10
2023-01-13T21:28:13.437Z,7.30
2023-01-13T21:30:41.941Z,8.23
2023-01-13T21:33:14.685Z,8.77
2023-01-13T21:35:43.304Z,14.30
2023-01-13T21:38:13.533Z,2.15
2023-01-13T21:40:43.176Z,4.38
2023-01-13T21:43:31.148Z,11.90
2023-01-13T21:46:31.805Z,9.10
2023-01-13T21:49:00.474Z,8.63
2023-01-13T21:51:29.330Z,5.32
2023-01-13T21:53:58.567Z,13.50
2023-01-13T21:56:28.439Z,13.25
2023-01-13T21:58:57.107Z,19.33
2023-01-13T22:01:25.492Z,19.40
2023-01-13T22:04:13.516Z,12.07
2023-01-13T22:06:42.244Z,8.95
2023-01-13T22:09:10.743Z,8.02
2023-01-13T22:11:40.412Z,12.73
2023-01-13T22:14:10.053Z,12.32
2023-01-13T22:16:41.751Z,14.27
2023-01-13T22:19:11.380Z,7.97
2023-01-13T22:21:40.131Z,9.48
2023-01-13T22:24:08.968Z,9.48
2023-01-13T22:26:37.184Z,13.35
2023-01-13T22:29:06.790Z,16.23
2023-01-13T22:31:35.144Z,3.88
2023-01-13T22:34:03.436Z,8.23
2023-01-13T22:36:31.931Z,12.60
2023-01-13T22:39:01.232Z,19.27
2023-01-13T22:41:29.576Z,13.48
2023-01-13T22:43:57.816Z,9.48
2023-01-13T22:46:27.449Z,9.15
2023-01-13T22:48:56.113Z,16.95
2023-01-13T22:51:26.425Z,8.75
2023-01-13T22:53:55.136Z,4.93
2023-01-13T22:56:25.640Z,20.10
2023-01-13T22:58:58.103Z,15.00
2023-01-13T23:01:30.020Z,7.55
2023-01-13T23:03:58.700Z,9.05
2023-01-13T23:06:29.480Z,7.05
2023-01-13T23:08:57.825Z,6.70
2023-01-13T23:11:29.244Z,8.15
2023-01-13T23:14:02.428Z,4.25
2023-01-13T23:16:34.958Z,12.50
2023-01-13T23:19:03.754Z,10.18
2023-01-13T23:21:36.033Z,7.22
2023-01-13T23:24:05.698Z,10.15
2023-01-13T23:26:35.414Z,10.10
2023-01-13T23:29:06.834Z,15.32
2023-01-13T23:31:36.862Z,9.68
2023-01-13T23:34:05.096Z,22.08
2023-01-13T23:36:33.498Z,11.88
2023-01-13T23:39:02.033Z,8.20
2023-01-13T23:41:30.616Z,15.50
2023-01-13T23:44:01.356Z,19.70
2023-01-13T23:46:32.627Z,16.48
2023-01-13T23:49:03.599Z,24.00
2023-01-13T23:51:32.528Z,12.70
2023-01-13T23:54:01.293Z,18.67
2023-01-13T23:56:32.253Z,18.40
2023-01-13T23:59:00.869Z,11.55
